createdAt,value
2019-05-12T00:00:07.953Z,1004.91
2019-05-12T00:01:08.615Z,1004.91
2019-05-12T00:02:07.698Z,1004.91
2019-05-12T00:03:08.469Z,1004.90
2019-05-12T00:04:08.236Z,1004.89
2019-05-12T00:05:08.558Z,1004.94
2019-05-12T00:06:08.626Z,1004.93
2019-05-12T00:07:08.567Z,1004.88
2019-05-12T00:08:08.282Z,1004.95
2019-05-12T00:09:08.355Z,1004.94
2019-05-12T00:10:08.417Z,1004.95
2019-05-12T00:11:08.797Z,1005.02
2019-05-12T00:12:08.230Z,1005.01
2019-05-12T00:13:08.389Z,1005.08
2019-05-12T00:14:08.466Z,1005.02
2019-05-12T00:15:08.247Z,1005.03
2019-05-12T00:16:08.602Z,1005.06
2019-05-12T00:17:08.195Z,1005.03
2019-05-12T00:18:08.844Z,1005.08
2019-05-12T00:19:06.267Z,1005.10
2019-05-12T00:20:08.329Z,1005.13
2019-05-12T00:21:08.655Z,1005.13
2019-05-12T00:22:07.678Z,1005.11
2019-05-12T00:23:22.391Z,1005.11
2019-05-12T00:24:08.026Z,1005.12
2019-05-12T00:25:08.629Z,1005.10
2019-05-12T00:26:07.937Z,1005.16
2019-05-12T00:27:08.427Z,1005.20
2019-05-12T00:28:07.835Z,1005.19
2019-05-12T00:29:07.694Z,1005.23
2019-05-12T00:30:09.651Z,1005.28
2019-05-12T00:31:08.265Z,1005.28
2019-05-12T00:32:08.458Z,1005.29
2019-05-12T00:33:08.945Z,1005.29
2019-05-12T00:34:07.751Z,1005.32
2019-05-12T00:35:07.799Z,1005.34
2019-05-12T00:36:08.031Z,1005.34
2019-05-12T00:37:08.194Z,1005.32
2019-05-12T00:38:08.655Z,1005.31
2019-05-12T00:39:07.969Z,1005.32
2019-05-12T00:40:08.211Z,1005.30
2019-05-12T00:41:06.094Z,1005.31
2019-05-12T00:42:07.826Z,1005.30
2019-05-12T00:43:08.465Z,1005.29
2019-05-12T00:44:08.198Z,1005.23
2019-05-12T00:45:08.150Z,1005.27
2019-05-12T00:46:07.955Z,1005.28
2019-05-12T00:47:08.043Z,1005.27
2019-05-12T00:48:08.731Z,1005.35
2019-05-12T00:49:08.071Z,1005.32
2019-05-12T00:50:08.042Z,1005.32
2019-05-12T00:51:07.735Z,1005.36
2019-05-12T00:52:08.014Z,1005.44
2019-05-12T00:53:08.619Z,1005.49
2019-05-12T00:54:05.992Z,1005.46
2019-05-12T00:55:07.982Z,1005.53
2019-05-12T00:56:08.314Z,1005.51
2019-05-12T00:57:07.759Z,1005.48
2019-05-12T00:58:08.183Z,1005.60
2019-05-12T00:59:08.129Z,1005.50
2019-05-12T01:00:05.946Z,1005.59
2019-05-12T01:01:08.162Z,1005.53
2019-05-12T01:02:07.922Z,1005.57
2019-05-12T01:03:08.413Z,1005.54
2019-05-12T01:04:08.521Z,1005.53
2019-05-12T01:05:08.388Z,1005.54
2019-05-12T01:06:08.242Z,1005.52
2019-05-12T01:07:05.892Z,1005.54
2019-05-12T01:08:08.489Z,1005.56
2019-05-12T01:09:08.551Z,1005.57
2019-05-12T01:10:05.867Z,1005.58
2019-05-12T01:11:05.858Z,1005.57
2019-05-12T01:12:07.814Z,1005.57
2019-05-12T01:13:08.268Z,1005.63
2019-05-12T01:14:05.838Z,1005.59
2019-05-12T01:15:07.481Z,1005.64
2019-05-12T01:16:07.969Z,1005.63
2019-05-12T01:17:05.809Z,1005.66
2019-05-12T01:18:05.802Z,1005.62
2019-05-12T01:19:07.938Z,1005.65
2019-05-12T01:20:05.786Z,1005.59
2019-05-12T01:21:07.744Z,1005.63
2019-05-12T01:22:07.626Z,1005.61
2019-05-12T01:23:08.219Z,1005.64
2019-05-12T01:24:08.319Z,1005.61
2019-05-12T01:25:08.360Z,1005.64
2019-05-12T01:26:05.740Z,1005.66
2019-05-12T01:27:05.731Z,1005.61
2019-05-12T01:28:07.946Z,1005.61
2019-05-12T01:29:05.715Z,1005.59
2019-05-12T01:30:05.709Z,1005.60
2019-05-12T01:31:05.698Z,1005.67
2019-05-12T01:32:07.937Z,1005.69
2019-05-12T01:33:08.263Z,1005.67
2019-05-12T01:34:07.938Z,1005.67
2019-05-12T01:35:07.958Z,1005.69
2019-05-12T01:36:07.822Z,1005.71
2019-05-12T01:37:07.878Z,1005.71
2019-05-12T01:38:07.752Z,1005.71
2019-05-12T01:39:07.744Z,1005.67
2019-05-12T01:40:05.631Z,1005.67
2019-05-12T01:41:05.632Z,1005.71
2019-05-12T01:42:05.614Z,1005.70
2019-05-12T01:43:08.229Z,1005.75
2019-05-12T01:44:05.599Z,1005.78
2019-05-12T01:45:05.595Z,1005.78
2019-05-12T01:46:07.887Z,1005.79
2019-05-12T01:47:08.232Z,1005.80
2019-05-12T01:48:08.314Z,1005.78
2019-05-12T01:49:07.980Z,1005.79
2019-05-12T01:50:05.554Z,1005.77
2019-05-12T01:51:05.544Z,1005.79
2019-05-12T01:52:05.541Z,1005.85
2019-05-12T01:53:07.923Z,1005.86
2019-05-12T01:54:11.700Z,1005.86
2019-05-12T01:55:05.515Z,1005.87
2019-05-12T01:56:07.712Z,1005.86
2019-05-12T01:57:05.503Z,1005.87
2019-05-12T01:58:05.498Z,1005.92
2019-05-12T01:59:05.482Z,1005.90
2019-05-12T02:00:07.929Z,1005.89
2019-05-12T02:01:05.464Z,1005.86
2019-05-12T02:02:05.460Z,1005.90
2019-05-12T02:03:05.462Z,1005.87
2019-05-12T02:04:07.631Z,1005.90
2019-05-12T02:05:08.241Z,1005.90
2019-05-12T02:06:05.427Z,1005.97
2019-05-12T02:07:05.427Z,1005.97
2019-05-12T02:08:05.410Z,1005.97
2019-05-12T02:09:05.407Z,1006.07
2019-05-12T02:10:05.400Z,1006.05
2019-05-12T02:11:07.849Z,1006.09
2019-05-12T02:12:05.390Z,1006.06
2019-05-12T02:13:07.733Z,1006.08
2019-05-12T02:14:05.371Z,1006.10
2019-05-12T02:15:07.993Z,1006.15
2019-05-12T02:16:05.352Z,1006.21
2019-05-12T02:17:05.353Z,1006.21
2019-05-12T02:18:05.351Z,1006.22
2019-05-12T02:19:05.330Z,1006.20
2019-05-12T02:20:07.615Z,1006.24
2019-05-12T02:21:05.317Z,1006.26
2019-05-12T02:22:05.305Z,1006.23
2019-05-12T02:23:05.299Z,1006.28
2019-05-12T02:24:07.599Z,1006.30
2019-05-12T02:25:07.936Z,1006.34
2019-05-12T02:26:05.279Z,1006.33
2019-05-12T02:27:05.266Z,1006.34
2019-05-12T02:28:05.267Z,1006.40
2019-05-12T02:29:07.700Z,1006.40
2019-05-12T02:30:09.289Z,1006.37
2019-05-12T02:31:05.235Z,1006.38
2019-05-12T02:32:05.230Z,1006.40
2019-05-12T02:33:05.433Z,1006.40
2019-05-12T02:34:05.774Z,1006.46
2019-05-12T02:35:05.877Z,1006.47
2019-05-12T02:36:05.202Z,1006.46
2019-05-12T02:37:05.578Z,1006.47
2019-05-12T02:38:05.503Z,1006.46
2019-05-12T02:39:05.421Z,1006.47
2019-05-12T02:40:05.235Z,1006.47
2019-05-12T02:41:05.160Z,1006.49
2019-05-12T02:42:05.329Z,1006.54
2019-05-12T02:43:05.843Z,1006.50
2019-05-12T02:44:05.522Z,1006.56
2019-05-12T02:45:05.695Z,1006.58
2019-05-12T02:46:05.134Z,1006.52
2019-05-12T02:47:05.356Z,1006.53
2019-05-12T02:48:05.645Z,1006.56
2019-05-12T02:49:05.335Z,1006.57
2019-05-12T02:50:05.397Z,1006.57
2019-05-12T02:51:05.641Z,1006.56
2019-05-12T02:52:05.245Z,1006.58
2019-05-12T02:53:05.510Z,1006.58
2019-05-12T02:54:05.523Z,1006.58
2019-05-12T02:55:06.398Z,1006.58
2019-05-12T02:56:05.309Z,1006.57
2019-05-12T02:57:05.038Z,1006.54
2019-05-12T02:58:05.921Z,1006.61
2019-05-12T02:59:05.547Z,1006.60
2019-05-12T03:00:05.351Z,1006.60
2019-05-12T03:01:05.617Z,1006.59
2019-05-12T03:02:05.412Z,1006.61
2019-05-12T03:03:05.544Z,1006.62
2019-05-12T03:04:05.831Z,1006.58
2019-05-12T03:05:05.701Z,1006.63
2019-05-12T03:06:05.661Z,1006.63
2019-05-12T03:07:06.504Z,1006.64
2019-05-12T03:08:05.255Z,1006.59
2019-05-12T03:09:05.056Z,1006.63
2019-05-12T03:10:05.269Z,1006.64
2019-05-12T03:11:06.063Z,1006.67
2019-05-12T03:12:05.867Z,1006.64
2019-05-12T03:13:05.051Z,1006.64
2019-05-12T03:14:04.915Z,1006.67
2019-05-12T03:15:05.626Z,1006.71
2019-05-12T03:16:05.264Z,1006.73
2019-05-12T03:17:04.900Z,1006.75
2019-05-12T03:18:40.784Z,1006.76
2019-05-12T03:19:05.402Z,1006.76
2019-05-12T03:20:05.171Z,1006.82
2019-05-12T03:21:05.792Z,1006.78
2019-05-12T03:22:05.257Z,1006.83
2019-05-12T03:23:06.365Z,1006.83
2019-05-12T03:24:06.049Z,1006.91
2019-05-12T03:25:15.341Z,1006.96
2019-05-12T03:26:05.337Z,1006.90
2019-05-12T03:27:04.814Z,1006.96
2019-05-12T03:28:08.142Z,1006.96
2019-05-12T03:29:05.999Z,1006.99
2019-05-12T03:30:09.820Z,1006.97
2019-05-12T03:31:07.794Z,1006.98
2019-05-12T03:32:08.217Z,1007.03
2019-05-12T03:33:09.329Z,1007.03
2019-05-12T03:34:09.214Z,1007.03
2019-05-12T03:35:08.666Z,1007.07
2019-05-12T03:36:08.893Z,1007.06
2019-05-12T03:37:07.817Z,1007.02
2019-05-12T03:38:04.736Z,1007.03
2019-05-12T03:39:04.717Z,1007.03
2019-05-12T03:40:05.594Z,1007.06
2019-05-12T03:41:05.481Z,1007.07
2019-05-12T03:42:05.290Z,1007.12
2019-05-12T03:43:05.608Z,1007.12
2019-05-12T03:44:05.260Z,1007.18
2019-05-12T03:45:04.940Z,1007.17
2019-05-12T03:46:05.434Z,1007.16
2019-05-12T03:47:05.185Z,1007.17
2019-05-12T03:48:04.650Z,1007.18
2019-05-12T03:49:05.504Z,1007.20
2019-05-12T03:50:04.903Z,1007.22
2019-05-12T03:51:05.737Z,1007.27
2019-05-12T03:52:05.203Z,1007.28
2019-05-12T03:53:10.104Z,1007.31
2019-05-12T03:54:05.214Z,1007.32
2019-05-12T03:55:05.603Z,1007.38
2019-05-12T03:56:04.698Z,1007.40
2019-05-12T03:57:04.707Z,1007.39
2019-05-12T03:58:04.760Z,1007.45
2019-05-12T03:59:05.097Z,1007.43
2019-05-12T04:00:05.318Z,1007.45
2019-05-12T04:01:04.894Z,1007.45
2019-05-12T04:02:04.957Z,1007.46
2019-05-12T04:03:05.030Z,1007.51
2019-05-12T04:04:05.262Z,1007.53
2019-05-12T04:05:05.411Z,1007.50
2019-05-12T04:06:04.964Z,1007.51
2019-05-12T04:07:05.319Z,1007.57
2019-05-12T04:08:05.651Z,1007.55
2019-05-12T04:09:04.801Z,1007.61
2019-05-12T04:10:05.406Z,1007.64
2019-05-12T04:11:05.495Z,1007.67
2019-05-12T04:12:05.356Z,1007.65
2019-05-12T04:13:04.861Z,1007.72
2019-05-12T04:14:05.529Z,1007.78
2019-05-12T04:15:05.369Z,1007.77
2019-05-12T04:16:04.983Z,1007.84
2019-05-12T04:17:04.944Z,1007.85
2019-05-12T04:18:05.870Z,1007.88
2019-05-12T04:19:05.492Z,1007.90
2019-05-12T04:20:04.993Z,1007.94
2019-05-12T04:21:05.524Z,1007.95
2019-05-12T04:22:05.518Z,1007.91
2019-05-12T04:23:06.026Z,1007.98
2019-05-12T04:24:05.738Z,1007.97
2019-05-12T04:25:06.072Z,1008.00
2019-05-12T04:26:10.961Z,1008.02
2019-05-12T04:27:05.391Z,1008.00
2019-05-12T04:28:04.941Z,1008.05
2019-05-12T04:29:05.269Z,1008.08
2019-05-12T04:30:05.469Z,1008.16
2019-05-12T04:31:05.500Z,1008.13
2019-05-12T04:32:05.246Z,1008.17
2019-05-12T04:33:04.908Z,1008.22
2019-05-12T04:34:05.344Z,1008.21
2019-05-12T04:35:04.880Z,1008.25
2019-05-12T04:36:05.550Z,1008.23
2019-05-12T04:37:04.643Z,1008.25
2019-05-12T04:38:04.765Z,1008.32
2019-05-12T04:39:04.400Z,1008.34
2019-05-12T04:40:05.416Z,1008.42
2019-05-12T04:41:05.853Z,1008.46
2019-05-12T04:42:05.302Z,1008.47
2019-05-12T04:43:05.934Z,1008.50
2019-05-12T04:44:05.851Z,1008.60
2019-05-12T04:45:04.649Z,1008.57
2019-05-12T04:46:05.052Z,1008.57
2019-05-12T04:47:05.613Z,1008.61
2019-05-12T04:48:05.589Z,1008.66
2019-05-12T04:49:05.229Z,1008.69
2019-05-12T04:50:05.493Z,1008.63
2019-05-12T04:51:04.990Z,1008.67
2019-05-12T04:52:05.317Z,1008.66
2019-05-12T04:53:05.967Z,1008.69
2019-05-12T04:54:05.871Z,1008.66
2019-05-12T04:55:04.897Z,1008.67
2019-05-12T04:56:14.707Z,1008.70
2019-05-12T04:57:04.286Z,1008.74
2019-05-12T04:58:04.727Z,1008.77
2019-05-12T04:59:04.931Z,1008.76
2019-05-12T05:00:05.099Z,1008.79
2019-05-12T05:01:06.344Z,1008.87
2019-05-12T05:02:05.491Z,1008.79
2019-05-12T05:03:05.113Z,1008.85
2019-05-12T05:04:05.512Z,1008.82
2019-05-12T05:05:05.334Z,1008.90
2019-05-12T05:06:04.617Z,1008.88
2019-05-12T05:07:04.555Z,1008.88
2019-05-12T05:08:04.627Z,1008.92
2019-05-12T05:09:05.104Z,1008.98
2019-05-12T05:10:04.789Z,1009.00
2019-05-12T05:11:04.235Z,1009.06
2019-05-12T05:12:04.664Z,1009.09
2019-05-12T05:13:05.072Z,1009.13
2019-05-12T05:14:04.399Z,1009.13
2019-05-12T05:15:05.462Z,1009.15
2019-05-12T05:16:05.430Z,1009.16
2019-05-12T05:17:05.578Z,1009.21
2019-05-12T05:18:06.198Z,1009.24
2019-05-12T05:19:03.953Z,1009.26
2019-05-12T05:20:04.190Z,1009.33
2019-05-12T05:21:04.714Z,1009.38
2019-05-12T05:22:04.384Z,1009.41
2019-05-12T05:23:04.173Z,1009.45
2019-05-12T05:24:04.126Z,1009.49
2019-05-12T05:25:04.319Z,1009.55
2019-05-12T05:26:03.904Z,1009.56
2019-05-12T05:27:04.440Z,1009.59
2019-05-12T05:28:04.225Z,1009.66
2019-05-12T05:29:04.386Z,1009.68
2019-05-12T05:30:04.175Z,1009.74
2019-05-12T05:31:03.867Z,1009.76
2019-05-12T05:32:03.871Z,1009.76
2019-05-12T05:33:04.902Z,1009.79
2019-05-12T05:34:04.847Z,1009.83
2019-05-12T05:35:07.188Z,1009.82
2019-05-12T05:36:03.828Z,1009.86
2019-05-12T05:37:05.217Z,1009.85
2019-05-12T05:38:04.440Z,1009.86
2019-05-12T05:39:04.313Z,1009.86
2019-05-12T05:40:04.068Z,1009.85
2019-05-12T05:41:06.072Z,1009.91
2019-05-12T05:42:04.570Z,1009.92
2019-05-12T05:43:12.389Z,1009.96
2019-05-12T05:44:03.767Z,1009.94
2019-05-12T05:45:04.854Z,1009.96
2019-05-12T05:46:07.801Z,1010.00
2019-05-12T05:47:04.404Z,1010.03
2019-05-12T05:48:07.466Z,1010.01
2019-05-12T05:49:04.305Z,1010.07
2019-05-12T05:50:04.784Z,1010.10
2019-05-12T05:51:05.673Z,1010.10
2019-05-12T05:52:03.708Z,1010.14
2019-05-12T05:53:04.199Z,1010.17
2019-05-12T05:54:04.093Z,1010.17
2019-05-12T05:55:05.798Z,1010.17
2019-05-12T05:56:04.126Z,1010.20
2019-05-12T05:57:06.103Z,1010.20
2019-05-12T05:58:08.557Z,1010.20
2019-05-12T05:59:04.533Z,1010.27
2019-05-12T06:00:07.123Z,1010.28
2019-05-12T06:01:07.783Z,1010.27
2019-05-12T06:02:04.947Z,1010.31
2019-05-12T06:03:05.454Z,1010.31
2019-05-12T06:04:08.379Z,1010.36
2019-05-12T06:05:04.413Z,1010.34
2019-05-12T06:06:10.779Z,1010.40
2019-05-12T06:07:04.134Z,1010.40
2019-05-12T06:08:04.336Z,1010.39
2019-05-12T06:09:03.755Z,1010.41
2019-05-12T06:10:04.139Z,1010.44
2019-05-12T06:11:04.488Z,1010.43
2019-05-12T06:12:07.549Z,1010.45
2019-05-12T06:13:04.210Z,1010.42
2019-05-12T06:14:11.604Z,1010.44
2019-05-12T06:15:04.163Z,1010.39
2019-05-12T06:16:04.388Z,1010.45
2019-05-12T06:17:04.285Z,1010.44
2019-05-12T06:18:03.875Z,1010.45
2019-05-12T06:19:03.650Z,1010.40
2019-05-12T06:20:04.469Z,1010.44
2019-05-12T06:21:03.650Z,1010.46
2019-05-12T06:22:04.027Z,1010.47
2019-05-12T06:23:04.278Z,1010.49
2019-05-12T06:24:03.744Z,1010.47
2019-05-12T06:25:04.886Z,1010.46
2019-05-12T06:26:04.659Z,1010.42
2019-05-12T06:27:14.328Z,1010.43
2019-05-12T06:28:04.607Z,1010.51
2019-05-12T06:29:04.507Z,1010.49
2019-05-12T06:30:06.184Z,1010.53
2019-05-12T06:31:04.288Z,1010.48
2019-05-12T06:32:06.270Z,1010.46
2019-05-12T06:33:04.233Z,1010.49
2019-05-12T06:34:06.181Z,1010.48
2019-05-12T06:35:04.558Z,1010.46
2019-05-12T06:36:04.482Z,1010.52
2019-05-12T06:37:11.974Z,1010.57
2019-05-12T06:38:04.965Z,1010.54
2019-05-12T06:39:04.355Z,1010.67
2019-05-12T06:40:03.698Z,1010.54
2019-05-12T06:41:03.671Z,1010.59
2019-05-12T06:42:12.255Z,1010.55
2019-05-12T06:43:04.383Z,1010.56
2019-05-12T06:44:03.797Z,1010.59
2019-05-12T06:45:03.868Z,1010.57
2019-05-12T06:46:03.705Z,1010.58
2019-05-12T06:47:08.045Z,1010.58
2019-05-12T06:48:03.472Z,1010.59
2019-05-12T06:49:10.199Z,1010.60
2019-05-12T06:50:03.867Z,1010.62
2019-05-12T06:51:03.999Z,1010.68
2019-05-12T06:52:07.035Z,1010.63
2019-05-12T06:53:04.984Z,1010.62
2019-05-12T06:54:07.407Z,1010.63
2019-05-12T06:55:04.066Z,1010.62
2019-05-12T06:56:04.509Z,1010.63
2019-05-12T06:57:18.644Z,1010.64
2019-05-12T06:58:04.662Z,1010.65
2019-05-12T06:59:09.870Z,1010.72
2019-05-12T07:00:04.507Z,1010.76
2019-05-12T07:01:10.120Z,1010.74
2019-05-12T07:02:03.468Z,1010.75
2019-05-12T07:03:03.972Z,1010.75
2019-05-12T07:04:08.264Z,1010.80
2019-05-12T07:05:04.331Z,1010.80
2019-05-12T07:06:04.092Z,1010.76
2019-05-12T07:07:03.625Z,1010.76
2019-05-12T07:08:04.168Z,1010.75
2019-05-12T07:09:09.164Z,1010.77
2019-05-12T07:10:11.881Z,1010.78
2019-05-12T07:11:05.902Z,1010.84
2019-05-12T07:12:06.960Z,1010.93
2019-05-12T07:13:05.673Z,1010.91
2019-05-12T07:14:07.782Z,1010.83
2019-05-12T07:15:03.754Z,1010.89
2019-05-12T07:16:03.708Z,1010.92
2019-05-12T07:17:05.860Z,1011.00
2019-05-12T07:18:04.304Z,1010.96
2019-05-12T07:19:09.630Z,1010.96
2019-05-12T07:20:04.015Z,1010.99
2019-05-12T07:21:04.134Z,1010.89
2019-05-12T07:22:03.615Z,1010.99
2019-05-12T07:23:03.982Z,1010.96
2019-05-12T07:24:06.693Z,1011.00
2019-05-12T07:25:04.492Z,1011.00
2019-05-12T07:26:05.019Z,1011.04
2019-05-12T07:27:08.990Z,1011.03
2019-05-12T07:28:07.508Z,1011.07
2019-05-12T07:29:04.452Z,1011.14
2019-05-12T07:30:04.752Z,1011.04
2019-05-12T07:31:03.904Z,1011.10
2019-05-12T07:32:07.113Z,1011.15
2019-05-12T07:33:04.428Z,1011.10
2019-05-12T07:34:07.180Z,1011.02
2019-05-12T07:35:03.895Z,1011.05
2019-05-12T07:36:06.335Z,1011.09
2019-05-12T07:37:04.403Z,1011.04
2019-05-12T07:38:04.655Z,1011.03
2019-05-12T07:39:04.300Z,1011.11
2019-05-12T07:40:04.815Z,1010.98
2019-05-12T07:41:08.872Z,1011.03
2019-05-12T07:42:03.643Z,1011.06
2019-05-12T07:43:03.993Z,1011.04
2019-05-12T07:44:03.644Z,1011.06
2019-05-12T07:45:03.995Z,1011.07
2019-05-12T07:46:06.924Z,1011.07
2019-05-12T07:47:03.572Z,1011.10
2019-05-12T07:48:05.698Z,1011.13
2019-05-12T07:49:03.913Z,1011.13
2019-05-12T07:50:04.508Z,1011.21
2019-05-12T07:51:04.201Z,1011.17
2019-05-12T07:52:03.624Z,1011.16
2019-05-12T07:53:04.154Z,1011.18
2019-05-12T07:54:04.062Z,1011.20
2019-05-12T07:55:04.329Z,1011.16
2019-05-12T07:56:04.177Z,1011.22
2019-05-12T07:57:11.456Z,1011.25
2019-05-12T07:58:09.968Z,1011.25
2019-05-12T07:59:04.368Z,1011.17
2019-05-12T08:00:03.649Z,1011.30
2019-05-12T08:01:07.197Z,1011.30
2019-05-12T08:02:03.875Z,1011.32
2019-05-12T08:03:06.298Z,1011.41
2019-05-12T08:04:04.502Z,1011.38
2019-05-12T08:05:03.801Z,1011.44
2019-05-12T08:06:04.629Z,1011.41
2019-05-12T08:07:03.888Z,1011.39
2019-05-12T08:08:08.697Z,1011.38
2019-05-12T08:09:04.156Z,1011.42
2019-05-12T08:10:07.313Z,1011.40
2019-05-12T08:11:04.408Z,1011.51
2019-05-12T08:12:04.001Z,1011.43
2019-05-12T08:13:04.353Z,1011.44
2019-05-12T08:14:03.595Z,1011.39
2019-05-12T08:15:05.412Z,1011.41
2019-05-12T08:16:03.718Z,1011.40
2019-05-12T08:17:11.176Z,1011.44
2019-05-12T08:18:07.427Z,1011.43
2019-05-12T08:19:03.985Z,1011.46
2019-05-12T08:20:04.516Z,1011.52
2019-05-12T08:21:03.819Z,1011.48
2019-05-12T08:22:04.304Z,1011.55
2019-05-12T08:23:05.762Z,1011.51
2019-05-12T08:24:03.814Z,1011.51
2019-05-12T08:25:04.199Z,1011.68
2019-05-12T08:26:11.431Z,1011.50
2019-05-12T08:27:06.245Z,1011.52
2019-05-12T08:28:14.522Z,1011.63
2019-05-12T08:29:04.210Z,1011.60
2019-05-12T08:30:06.025Z,1011.63
2019-05-12T08:31:03.596Z,1011.61
2019-05-12T08:32:03.828Z,1011.61
2019-05-12T08:33:09.213Z,1011.63
2019-05-12T08:34:04.203Z,1011.65
2019-05-12T08:35:04.877Z,1011.67
2019-05-12T08:36:11.091Z,1011.58
2019-05-12T08:37:04.381Z,1011.65
2019-05-12T08:38:03.953Z,1011.70
2019-05-12T08:39:05.901Z,1011.64
2019-05-12T08:40:04.292Z,1011.70
2019-05-12T08:41:04.268Z,1011.67
2019-05-12T08:42:04.088Z,1011.70
2019-05-12T08:43:07.985Z,1011.69
2019-05-12T08:44:04.551Z,1011.71
2019-05-12T08:45:04.103Z,1011.66
2019-05-12T08:46:10.025Z,1011.64
2019-05-12T08:47:03.932Z,1011.72
2019-05-12T08:48:03.870Z,1011.64
2019-05-12T08:49:05.259Z,1011.64
2019-05-12T08:50:04.830Z,1011.67
2019-05-12T08:51:05.344Z,1011.70
2019-05-12T08:52:03.828Z,1011.69
2019-05-12T08:53:04.636Z,1011.70
2019-05-12T08:54:07.051Z,1011.65
2019-05-12T08:55:04.297Z,1011.71
2019-05-12T08:56:06.654Z,1011.73
2019-05-12T08:57:03.891Z,1011.72
2019-05-12T08:58:03.765Z,1011.77
2019-05-12T08:59:04.345Z,1011.81
2019-05-12T09:00:06.746Z,1011.78
2019-05-12T09:01:04.447Z,1011.88
2019-05-12T09:02:07.250Z,1011.84
2019-05-12T09:03:03.582Z,1011.95
2019-05-12T09:04:06.554Z,1011.89
2019-05-12T09:05:04.634Z,1011.91
2019-05-12T09:06:04.105Z,1011.95
2019-05-12T09:07:04.410Z,1012.02
2019-05-12T09:08:03.794Z,1012.04
2019-05-12T09:09:03.464Z,1012.04
2019-05-12T09:10:04.178Z,1012.06
2019-05-12T09:11:03.520Z,1012.02
2019-05-12T09:12:03.536Z,1011.96
2019-05-12T09:13:03.996Z,1011.93
2019-05-12T09:14:03.563Z,1011.95
2019-05-12T09:15:04.456Z,1012.05
2019-05-12T09:16:04.360Z,1011.96
2019-05-12T09:17:07.188Z,1012.06
2019-05-12T09:18:04.662Z,1012.05
2019-05-12T09:19:04.677Z,1012.01
2019-05-12T09:20:08.207Z,1011.99
2019-05-12T09:21:03.727Z,1011.98
2019-05-12T09:22:05.537Z,1012.01
2019-05-12T09:23:04.731Z,1012.05
2019-05-12T09:24:04.197Z,1011.94
2019-05-12T09:25:06.126Z,1012.33
2019-05-12T09:26:04.127Z,1012.16
2019-05-12T09:27:07.002Z,1012.19
2019-05-12T09:28:03.771Z,1012.36
2019-05-12T09:29:03.478Z,1012.16
2019-05-12T09:30:08.053Z,1012.14
2019-05-12T09:31:03.683Z,1012.25
2019-05-12T09:32:07.381Z,1012.22
2019-05-12T09:33:04.077Z,1012.25
2019-05-12T09:34:05.851Z,1012.28
2019-05-12T09:35:04.010Z,1012.38
2019-05-12T09:36:04.313Z,1012.33
2019-05-12T09:37:04.033Z,1012.34
2019-05-12T09:38:03.700Z,1012.38
2019-05-12T09:39:03.838Z,1012.41
2019-05-12T09:40:04.594Z,1012.38
2019-05-12T09:41:03.328Z,1012.41
2019-05-12T09:42:03.801Z,1012.43
2019-05-12T09:43:06.357Z,1012.40
2019-05-12T09:44:04.471Z,1012.37
2019-05-12T09:45:06.137Z,1012.33
2019-05-12T09:46:04.173Z,1012.43
2019-05-12T09:47:04.069Z,1012.34
2019-05-12T09:48:04.956Z,1012.28
2019-05-12T09:49:04.129Z,1012.32
2019-05-12T09:50:04.330Z,1012.52
2019-05-12T09:51:05.067Z,1012.44
2019-05-12T09:52:03.682Z,1012.33
2019-05-12T09:53:09.269Z,1012.35
2019-05-12T09:54:05.053Z,1012.31
2019-05-12T09:55:04.230Z,1012.28
2019-05-12T09:56:04.489Z,1012.38
2019-05-12T09:57:04.371Z,1012.37
2019-05-12T09:58:03.952Z,1012.33
2019-05-12T09:59:16.671Z,1012.31
2019-05-12T10:00:04.504Z,1012.32
2019-05-12T10:01:03.592Z,1012.36
2019-05-12T10:02:03.667Z,1012.38
2019-05-12T10:03:04.806Z,1012.37
2019-05-12T10:04:03.455Z,1012.35
2019-05-12T10:05:03.941Z,1012.28
2019-05-12T10:06:03.664Z,1012.36
2019-05-12T10:07:03.829Z,1012.41
2019-05-12T10:08:04.573Z,1012.40
2019-05-12T10:09:03.436Z,1012.44
2019-05-12T10:10:03.711Z,1012.40
2019-05-12T10:11:03.731Z,1012.42
2019-05-12T10:12:05.338Z,1012.39
2019-05-12T10:13:04.652Z,1012.48
2019-05-12T10:14:06.466Z,1012.50
2019-05-12T10:15:04.303Z,1012.53
2019-05-12T10:16:04.995Z,1012.45
2019-05-12T10:17:03.578Z,1012.58
2019-05-12T10:18:06.580Z,1012.32
2019-05-12T10:19:04.018Z,1012.42
2019-05-12T10:20:02.530Z,1012.54
2019-05-12T10:21:02.490Z,1012.52
2019-05-12T10:22:02.490Z,1012.41
2019-05-12T10:23:04.398Z,1012.36
2019-05-12T10:24:04.944Z,1012.41
2019-05-12T10:25:04.032Z,1012.38
2019-05-12T10:26:09.459Z,1012.42
2019-05-12T10:27:03.849Z,1012.47
2019-05-12T10:28:11.145Z,1012.51
2019-05-12T10:29:14.138Z,1012.49
2019-05-12T10:30:11.444Z,1012.49
2019-05-12T10:31:04.174Z,1012.47
2019-05-12T10:32:04.037Z,1012.46
2019-05-12T10:33:03.696Z,1012.50
2019-05-12T10:34:03.418Z,1012.53
2019-05-12T10:35:02.493Z,1012.52
2019-05-12T10:36:06.868Z,1012.50
2019-05-12T10:37:04.171Z,1012.47
2019-05-12T10:38:06.294Z,1012.54
2019-05-12T10:39:04.263Z,1012.56
2019-05-12T10:40:03.701Z,1012.49
2019-05-12T10:41:04.250Z,1012.57
2019-05-12T10:42:02.508Z,1012.63
2019-05-12T10:43:04.420Z,1012.63
2019-05-12T10:44:04.092Z,1012.64
2019-05-12T10:45:04.271Z,1012.66
2019-05-12T10:46:04.238Z,1012.67
2019-05-12T10:47:04.479Z,1012.83
2019-05-12T10:48:03.598Z,1012.60
2019-05-12T10:49:03.971Z,1012.62
2019-05-12T10:50:02.546Z,1012.66
2019-05-12T10:51:02.554Z,1012.52
2019-05-12T10:52:03.883Z,1012.64
2019-05-12T10:53:04.516Z,1012.72
2019-05-12T10:54:11.794Z,1012.69
2019-05-12T10:55:04.438Z,1012.61
2019-05-12T10:56:02.574Z,1012.73
2019-05-12T10:57:04.946Z,1012.60
2019-05-12T10:58:06.399Z,1012.61
2019-05-12T10:59:04.268Z,1012.65
2019-05-12T11:00:04.128Z,1012.61
2019-05-12T11:01:05.232Z,1012.71
2019-05-12T11:02:03.547Z,1012.68
2019-05-12T11:03:10.218Z,1012.78
2019-05-12T11:04:03.939Z,1012.71
2019-05-12T11:05:02.633Z,1012.69
2019-05-12T11:06:07.142Z,1012.65
2019-05-12T11:07:04.677Z,1012.72
2019-05-12T11:08:06.383Z,1012.82
2019-05-12T11:09:03.791Z,1012.76
2019-05-12T11:10:14.918Z,1012.79
2019-05-12T11:11:04.219Z,1012.77
2019-05-12T11:12:03.458Z,1012.74
2019-05-12T11:13:08.712Z,1012.72
2019-05-12T11:14:03.949Z,1012.71
2019-05-12T11:15:06.638Z,1012.74
2019-05-12T11:16:03.778Z,1012.77
2019-05-12T11:17:07.915Z,1012.73
2019-05-12T11:18:02.698Z,1012.70
2019-05-12T11:19:06.352Z,1012.65
2019-05-12T11:20:04.140Z,1012.59
2019-05-12T11:21:03.588Z,1012.67
2019-05-12T11:22:03.653Z,1012.82
2019-05-12T11:23:03.567Z,1012.84
2019-05-12T11:24:03.833Z,1012.91
2019-05-12T11:25:04.362Z,1012.85
2019-05-12T11:26:03.900Z,1012.81
2019-05-12T11:27:04.125Z,1012.90
2019-05-12T11:28:03.784Z,1012.87
2019-05-12T11:29:03.791Z,1012.78
2019-05-12T11:30:04.295Z,1012.97
2019-05-12T11:31:02.766Z,1012.86
2019-05-12T11:32:02.772Z,1012.88
2019-05-12T11:33:04.350Z,1012.82
2019-05-12T11:34:04.840Z,1012.82
2019-05-12T11:35:04.115Z,1012.87
2019-05-12T11:36:04.397Z,1012.90
2019-05-12T11:37:03.450Z,1012.80
2019-05-12T11:38:04.392Z,1012.86
2019-05-12T11:39:03.674Z,1012.83
2019-05-12T11:40:04.311Z,1012.77
2019-05-12T11:41:04.249Z,1012.76
2019-05-12T11:42:04.190Z,1012.91
2019-05-12T11:43:04.042Z,1012.96
2019-05-12T11:44:03.962Z,1012.97
2019-05-12T11:45:02.852Z,1013.04
2019-05-12T11:46:02.856Z,1012.90
2019-05-12T11:47:03.661Z,1012.82
2019-05-12T11:48:07.975Z,1012.85
2019-05-12T11:49:04.377Z,1012.84
2019-05-12T11:50:05.055Z,1012.89
2019-05-12T11:51:03.950Z,1012.92
2019-05-12T11:52:09.678Z,1013.00
2019-05-12T11:53:04.258Z,1012.97
2019-05-12T11:54:03.628Z,1012.92
2019-05-12T11:55:02.919Z,1012.94
2019-05-12T11:56:07.709Z,1012.99
2019-05-12T11:57:02.933Z,1013.00
2019-05-12T11:58:06.800Z,1012.97
2019-05-12T11:59:02.947Z,1012.97
2019-05-12T12:00:05.303Z,1013.05
2019-05-12T12:01:04.697Z,1013.00
2019-05-12T12:02:02.965Z,1012.98
2019-05-12T12:03:12.083Z,1013.05
2019-05-12T12:04:03.719Z,1013.24
2019-05-12T12:05:02.987Z,1013.10